Time;durP1;ratioP1;P1;durP2;ratioP2;P2;SDS_P1;SDS_P2;PMS_P1;PMS_P2;Temp;Humidity;BMP_temperature;BMP_pressure;BME280_temperature;BME280_humidity;BME280_pressure;Samples;Min_cycle;Max_cycle;Signal;HPM_P1;HPM_P2
2021/12/30 00:01:45;;;;;;;41.97;5.47;;;;;;;;;;5147507;27;20419;-57
2021/12/30 00:04:11;;;;;;;27.00;4.68;;;;;;;;;;5147669;27;20495;-58
2021/12/30 00:06:41;;;;;;;38.20;5.80;;;;;;;;;;5146911;27;20518;-58
2021/12/30 00:09:11;;;;;;;39.30;6.03;;;;;;;;;;5111170;27;20066;-58
2021/12/30 00:11:38;;;;;;;25.45;5.22;;;;;;;;;;5147401;27;20070;-57
2021/12/30 00:14:05;;;;;;;35.35;6.63;;;;;;;;;;5147417;27;20050;-56
2021/12/30 00:16:31;;;;;;;30.92;5.18;;;;;;;;;;5147213;27;20051;-57
2021/12/30 00:18:57;;;;;;;30.13;5.05;;;;;;;;;;5147075;27;20041;-58
2021/12/30 00:21:23;;;;;;;33.95;5.85;;;;;;;;;;5146444;27;20099;-58
2021/12/30 00:23:50;;;;;;;46.80;5.97;;;;;;;;;;5147086;27;20050;-57
2021/12/30 00:26:16;;;;;;;34.72;6.43;;;;;;;;;;5146941;27;20077;-58
2021/12/30 00:28:42;;;;;;;37.97;5.30;;;;;;;;;;5128539;27;20102;-57
2021/12/30 00:31:09;;;;;;;37.17;7.03;;;;;;;;;;5146959;27;20043;-57
2021/12/30 00:33:35;;;;;;;44.88;6.28;;;;;;;;;;5146817;27;20103;-58
2021/12/30 00:36:02;;;;;;;44.00;5.90;;;;;;;;;;5146423;27;20050;-58
2021/12/30 00:38:28;;;;;;;37.40;6.03;;;;;;;;;;5146902;27;20046;-57
2021/12/30 00:40:54;;;;;;;47.92;7.10;;;;;;;;;;5146521;27;20043;-58
2021/12/30 00:43:21;;;;;;;43.63;6.95;;;;;;;;;;5146547;27;20043;-57
2021/12/30 00:45:47;;;;;;;47.30;8.48;;;;;;;;;;5127991;27;20082;-57
2021/12/30 00:48:13;;;;;;;48.92;8.02;;;;;;;;;;5146577;27;20038;-58
2021/12/30 00:50:40;;;;;;;45.45;6.68;;;;;;;;;;5146011;27;20122;-58
2021/12/30 00:53:08;;;;;;;44.30;6.33;;;;;;;;;;5146712;27;20043;-58
2021/12/30 00:55:34;;;;;;;51.75;7.40;;;;;;;;;;5146166;27;20126;-58
2021/12/30 00:58:00;;;;;;;55.47;8.93;;;;;;;;;;5128307;27;20058;-57
2021/12/30 01:00:26;;;;;;;49.65;7.70;;;;;;;;;;5146242;27;20059;-58
2021/12/30 01:02:53;;;;;;;53.55;8.00;;;;;;;;;;5146315;27;20364;-57
2021/12/30 01:05:19;;;;;;;34.25;6.43;;;;;;;;;;5145562;27;20054;-58
2021/12/30 01:07:45;;;;;;;62.90;8.85;;;;;;;;;;5146311;27;20098;-58
2021/12/30 01:10:13;;;;;;;45.90;7.93;;;;;;;;;;5145570;27;20051;-58
2021/12/30 01:12:39;;;;;;;56.03;7.90;;;;;;;;;;5139087;27;20130;-58
2021/12/30 01:15:09;;;;;;;59.58;9.20;;;;;;;;;;5125518;28;20119;-58
2021/12/30 01:17:49;;;;;;;51.72;8.68;;;;;;;;;;5125446;28;20491;-57
2021/12/30 01:20:16;;;;;;;44.03;8.48;;;;;;;;;;5125082;28;20048;-57
2021/12/30 01:22:42;;;;;;;41.03;6.83;;;;;;;;;;5125322;28;20118;-56
2021/12/30 01:25:11;;;;;;;60.28;9.32;;;;;;;;;;5125044;28;20301;-57
2021/12/30 01:27:39;;;;;;;48.92;6.80;;;;;;;;;;5125398;28;20100;-58
2021/12/30 01:30:06;;;;;;;58.70;7.78;;;;;;;;;;5125054;28;20047;-56
2021/12/30 01:32:32;;;;;;;47.92;7.50;;;;;;;;;;5125203;28;20043;-58
2021/12/30 01:35:00;;;;;;;44.00;8.57;;;;;;;;;;5125197;28;20039;-58
2021/12/30 01:37:26;;;;;;;51.65;7.30;;;;;;;;;;5124816;28;20083;-57
2021/12/30 01:39:53;;;;;;;64.47;8.43;;;;;;;;;;5124868;28;20044;-56
2021/12/30 01:42:20;;;;;;;53.92;8.55;;;;;;;;;;5125068;28;20079;-58
2021/12/30 01:44:46;;;;;;;59.17;8.45;;;;;;;;;;5125059;28;20055;-56
2021/12/30 01:47:12;;;;;;;59.42;8.15;;;;;;;;;;5125166;28;20040;-57
2021/12/30 01:49:38;;;;;;;48.95;8.85;;;;;;;;;;5124938;28;20054;-56
2021/12/30 01:52:04;;;;;;;47.95;8.00;;;;;;;;;;5124488;28;20040;-59
2021/12/30 01:54:30;;;;;;;47.17;8.05;;;;;;;;;;5126251;28;20043;-58
2021/12/30 01:57:00;;;;;;;58.45;8.10;;;;;;;;;;5149697;27;20043;-58
2021/12/30 01:59:26;;;;;;;62.38;7.93;;;;;;;;;;5152541;27;20058;-58
2021/12/30 02:01:56;;;;;;;64.78;8.40;;;;;;;;;;5152163;27;20035;-57
2021/12/30 02:04:23;;;;;;;44.03;7.38;;;;;;;;;;5152474;27;20043;-58
2021/12/30 02:06:49;;;;;;;65.07;8.85;;;;;;;;;;5151894;27;20403;-57
2021/12/30 02:09:18;;;;;;;66.78;9.55;;;;;;;;;;5151838;27;20077;-58
2021/12/30 02:11:44;;;;;;;52.38;7.63;;;;;;;;;;5152416;27;20040;-58
2021/12/30 02:14:10;;;;;;;52.35;8.55;;;;;;;;;;5152412;27;20129;-57
2021/12/30 02:16:37;;;;;;;54.55;7.15;;;;;;;;;;5152257;27;20103;-57
2021/12/30 02:19:04;;;;;;;46.78;6.50;;;;;;;;;;5152354;27;20035;-57
2021/12/30 02:21:30;;;;;;;61.72;9.90;;;;;;;;;;5151328;27;20043;-57
2021/12/30 02:23:59;;;;;;;52.63;9.13;;;;;;;;;;5151867;27;20409;-57
2021/12/30 02:26:25;;;;;;;51.22;7.63;;;;;;;;;;5152287;27;20039;-58
2021/12/30 02:28:52;;;;;;;62.85;8.70;;;;;;;;;;5152117;27;20097;-57
2021/12/30 02:31:22;;;;;;;52.25;7.72;;;;;;;;;;5151918;27;20126;-57
2021/12/30 02:33:49;;;;;;;48.40;8.60;;;;;;;;;;5152007;27;20084;-57
2021/12/30 02:36:18;;;;;;;62.55;8.48;;;;;;;;;;5151724;27;20423;-57
2021/12/30 02:38:46;;;;;;;51.85;7.35;;;;;;;;;;5152036;27;20042;-58
2021/12/30 02:41:15;;;;;;;;;;;;;;;;;;5152500;27;20045;-57
2021/12/30 02:43:41;;;;;;;43.15;7.50;;;;;;;;;;5151800;27;19959;-58
2021/12/30 02:46:07;;;;;;;53.40;8.27;;;;;;;;;;5151527;27;20031;-56
2021/12/30 02:48:35;;;;;;;38.45;6.93;;;;;;;;;;5151600;27;20038;-58
2021/12/30 02:51:02;;;;;;;55.75;8.55;;;;;;;;;;5151309;27;20103;-58
2021/12/30 02:53:28;;;;;;;46.65;7.97;;;;;;;;;;5152036;27;20042;-58
2021/12/30 02:55:55;;;;;;;45.78;7.50;;;;;;;;;;5133143;27;20110;-58
2021/12/30 02:58:22;;;;;;;63.92;9.45;;;;;;;;;;5151796;27;20127;-58
2021/12/30 03:00:51;;;;;;;56.63;9.18;;;;;;;;;;5151935;27;20050;-57
2021/12/30 03:03:21;;;;;;;55.95;7.55;;;;;;;;;;5152037;27;20064;-57
2021/12/30 03:05:48;;;;;;;58.40;8.88;;;;;;;;;;5150333;27;20099;-58
2021/12/30 03:08:14;;;;;;;57.38;8.68;;;;;;;;;;5147889;27;20047;-58
2021/12/30 03:10:41;;;;;;;61.15;10.77;;;;;;;;;;5129781;27;20051;-57
2021/12/30 03:13:08;;;;;;;59.50;9.73;;;;;;;;;;5148479;27;20130;-58
2021/12/30 03:15:35;;;;;;;64.78;8.43;;;;;;;;;;5148495;27;20054;-57
2021/12/30 03:18:01;;;;;;;60.30;7.88;;;;;;;;;;5148570;27;20440;-57
2021/12/30 03:20:27;;;;;;;53.22;8.40;;;;;;;;;;5129342;27;20490;-58
2021/12/30 03:22:53;;;;;;;59.90;8.98;;;;;;;;;;5148332;27;20043;-58
2021/12/30 03:25:19;;;;;;;58.92;9.82;;;;;;;;;;5148054;27;20051;-57
2021/12/30 03:27:45;;;;;;;58.75;9.23;;;;;;;;;;5148148;27;20043;-58
2021/12/30 03:30:13;;;;;;;65.05;12.05;;;;;;;;;;5129830;27;20070;-57
2021/12/30 03:32:39;;;;;;;60.45;9.73;;;;;;;;;;5148444;27;20043;-57
2021/12/30 03:35:06;;;;;;;74.30;10.70;;;;;;;;;;5147720;27;20049;-57
2021/12/30 03:37:32;;;;;;;67.35;10.82;;;;;;;;;;5147695;27;20035;-58
2021/12/30 03:39:58;;;;;;;54.50;10.40;;;;;;;;;;5147781;27;20064;-57
2021/12/30 03:42:24;;;;;;;65.40;11.32;;;;;;;;;;5148049;27;20099;-58
2021/12/30 03:44:56;;;;;;;61.25;12.02;;;;;;;;;;5148277;27;20051;-58
2021/12/30 03:47:22;;;;;;;79.28;13.77;;;;;;;;;;5129327;27;20042;-58
2021/12/30 03:49:48;;;;;;;67.28;12.38;;;;;;;;;;5147501;27;20050;-57
2021/12/30 03:52:19;;;;;;;62.17;12.15;;;;;;;;;;5147112;27;20094;-56
2021/12/30 03:54:45;;;;;;;56.35;11.65;;;;;;;;;;5129061;27;20066;-57
2021/12/30 03:57:12;;;;;;;61.92;14.95;;;;;;;;;;5147871;27;20039;-56
2021/12/30 03:59:38;;;;;;;69.88;12.90;;;;;;;;;;5147553;27;20053;-56
2021/12/30 04:02:04;;;;;;;61.50;14.38;;;;;;;;;;5147292;27;20076;-57
2021/12/30 04:04:31;;;;;;;55.25;12.55;;;;;;;;;;5147459;27;20098;-57
2021/12/30 04:06:57;;;;;;;70.03;12.68;;;;;;;;;;5146876;27;20039;-57
2021/12/30 04:09:23;;;;;;;76.28;16.98;;;;;;;;;;5146878;27;20059;-57
2021/12/30 04:11:50;;;;;;;63.20;15.38;;;;;;;;;;5147563;27;20055;-56
2021/12/30 04:14:16;;;;;;;79.68;18.73;;;;;;;;;;5147110;27;20468;-58
2021/12/30 04:16:42;;;;;;;62.65;14.77;;;;;;;;;;5147379;27;20118;-57
2021/12/30 04:19:08;;;;;;;67.43;15.00;;;;;;;;;;5146915;27;20043;-57
2021/12/30 04:21:34;;;;;;;73.15;15.98;;;;;;;;;;5146394;27;20095;-57
2021/12/30 04:24:01;;;;;;;76.20;15.88;;;;;;;;;;5147064;27;20043;-57
2021/12/30 04:26:27;;;;;;;69.75;15.35;;;;;;;;;;5146854;27;20293;-57
2021/12/30 04:28:53;;;;;;;72.63;13.95;;;;;;;;;;5146892;27;20085;-57
2021/12/30 04:31:19;;;;;;;63.28;14.07;;;;;;;;;;5146985;27;20081;-57
2021/12/30 04:33:45;;;;;;;64.90;12.95;;;;;;;;;;5146892;27;20051;-58
2021/12/30 04:36:11;;;;;;;66.68;13.32;;;;;;;;;;5146594;27;20046;-58
2021/12/30 04:38:37;;;;;;;59.60;12.65;;;;;;;;;;5146756;27;20064;-58
2021/12/30 04:41:04;;;;;;;72.53;11.93;;;;;;;;;;5146399;27;20047;-58
2021/12/30 04:43:31;;;;;;;68.93;14.23;;;;;;;;;;5146882;27;20039;-57
2021/12/30 04:45:58;;;;;;;73.95;13.52;;;;;;;;;;5146680;27;20313;-58
2021/12/30 04:48:24;;;;;;;;;;;;;;;;;;5128768;27;20501;-58
2021/12/30 04:50:51;;;;;;;71.53;13.35;;;;;;;;;;5145719;27;19919;-57
2021/12/30 04:53:21;;;;;;;49.13;12.20;;;;;;;;;;5146413;27;20071;-57
2021/12/30 04:55:47;;;;;;;68.18;13.13;;;;;;;;;;5146107;27;20046;-57
2021/12/30 04:58:15;;;;;;;76.35;14.57;;;;;;;;;;5146382;27;20047;-57
2021/12/30 05:00:41;;;;;;;56.80;11.48;;;;;;;;;;5146645;27;20051;-57
2021/12/30 05:03:12;;;;;;;73.05;14.07;;;;;;;;;;5128274;27;20506;-57
2021/12/30 05:05:39;;;;;;;65.60;14.90;;;;;;;;;;5145910;27;20057;-57
2021/12/30 05:08:06;;;;;;;81.80;14.65;;;;;;;;;;5146329;27;20051;-57
2021/12/30 05:10:34;;;;;;;78.57;15.07;;;;;;;;;;5145768;27;20047;-57
2021/12/30 05:13:00;;;;;;;70.22;16.75;;;;;;;;;;5146059;27;20043;-57
2021/12/30 05:15:27;;;;;;;81.30;17.67;;;;;;;;;;5146090;27;20118;-56
2021/12/30 05:17:53;;;;;;;67.35;16.95;;;;;;;;;;5146083;27;20357;-58
2021/12/30 05:20:19;;;;;;;86.63;18.40;;;;;;;;;;5145289;27;20047;-57
2021/12/30 05:22:45;;;;;;;77.43;17.45;;;;;;;;;;5146085;27;20043;-57
2021/12/30 05:25:12;;;;;;;80.13;16.27;;;;;;;;;;5145659;27;20082;-58
2021/12/30 05:27:38;;;;;;;77.45;17.52;;;;;;;;;;5146323;27;20046;-57
2021/12/30 05:30:05;;;;;;;76.65;20.00;;;;;;;;;;5145221;27;20078;-57
2021/12/30 05:32:31;;;;;;;74.97;18.63;;;;;;;;;;5145877;27;20044;-57
2021/12/30 05:34:58;;;;;;;94.93;21.63;;;;;;;;;;5145720;27;20050;-56
2021/12/30 05:37:24;;;;;;;85.30;22.10;;;;;;;;;;5145498;27;20528;-58
2021/12/30 05:39:50;;;;;;;92.75;22.23;;;;;;;;;;5145587;27;20044;-56
2021/12/30 05:42:16;;;;;;;91.25;22.13;;;;;;;;;;5145591;27;20043;-56
2021/12/30 05:44:42;;;;;;;86.47;24.00;;;;;;;;;;5145668;27;20047;-57
2021/12/30 05:47:08;;;;;;;92.72;23.15;;;;;;;;;;5145667;27;20057;-56
2021/12/30 05:49:35;;;;;;;88.47;23.65;;;;;;;;;;5145503;27;20051;-57
2021/12/30 05:52:01;;;;;;;78.47;23.33;;;;;;;;;;5144858;27;20042;-57
2021/12/30 05:54:27;;;;;;;75.65;21.83;;;;;;;;;;5145655;28;20054;-56
2021/12/30 05:56:53;;;;;;;80.80;21.95;;;;;;;;;;5145385;28;20095;-57
2021/12/30 05:59:19;;;;;;;72.00;20.77;;;;;;;;;;5145621;28;20072;-56
2021/12/30 06:01:45;;;;;;;70.30;21.75;;;;;;;;;;5145379;28;20676;-57
2021/12/30 06:04:11;;;;;;;62.72;19.50;;;;;;;;;;5145350;28;20050;-57
2021/12/30 06:06:37;;;;;;;54.22;18.25;;;;;;;;;;5145087;28;20057;-56
2021/12/30 06:09:03;;;;;;;53.25;17.23;;;;;;;;;;5145186;28;20051;-57
2021/12/30 06:11:30;;;;;;;45.55;16.50;;;;;;;;;;5145208;28;20058;-57
2021/12/30 06:13:56;;;;;;;47.90;16.40;;;;;;;;;;5145572;28;20107;-57
2021/12/30 06:16:22;;;;;;;46.03;14.63;;;;;;;;;;5126929;28;20414;-58
2021/12/30 06:18:48;;;;;;;45.78;15.90;;;;;;;;;;5145424;28;20047;-57
2021/12/30 06:21:14;;;;;;;33.72;12.93;;;;;;;;;;5144661;28;20039;-57
2021/12/30 06:23:40;;;;;;;29.52;11.93;;;;;;;;;;5145325;28;20116;-59
2021/12/30 06:26:06;;;;;;;33.80;14.20;;;;;;;;;;5144929;28;20050;-56
2021/12/30 06:28:32;;;;;;;34.05;14.27;;;;;;;;;;5145315;28;20111;-57
2021/12/30 06:30:58;;;;;;;43.35;15.75;;;;;;;;;;5145048;28;20409;-57
2021/12/30 06:33:24;;;;;;;40.90;13.95;;;;;;;;;;5145286;28;20054;-56
2021/12/30 06:35:50;;;;;;;43.47;15.75;;;;;;;;;;5144631;28;20045;-58
2021/12/30 06:38:16;;;;;;;35.47;13.85;;;;;;;;;;5127010;28;20066;-57
2021/12/30 06:40:43;;;;;;;49.58;16.52;;;;;;;;;;5145599;27;20130;-57
2021/12/30 06:43:09;;;;;;;52.95;17.25;;;;;;;;;;5149267;27;20272;-57
2021/12/30 06:45:35;;;;;;;60.72;17.48;;;;;;;;;;5148898;27;20106;-58
2021/12/30 06:48:02;;;;;;;74.30;19.50;;;;;;;;;;5149123;27;20121;-59
2021/12/30 06:50:31;;;;;;;68.78;18.48;;;;;;;;;;5129810;27;20051;-57
2021/12/30 06:52:58;;;;;;;65.90;18.35;;;;;;;;;;5148987;27;20047;-58
2021/12/30 06:55:24;;;;;;;56.95;18.13;;;;;;;;;;5130049;27;20426;-58
2021/12/30 06:57:50;;;;;;;66.53;18.48;;;;;;;;;;5148910;27;20118;-57
2021/12/30 07:00:16;;;;;;;74.05;20.00;;;;;;;;;;5148731;27;20081;-57
2021/12/30 07:02:44;;;;;;;76.88;18.75;;;;;;;;;;5148677;27;20035;-57
2021/12/30 07:05:10;;;;;;;68.75;18.75;;;;;;;;;;5148196;27;20058;-56
2021/12/30 07:07:36;;;;;;;71.70;19.27;;;;;;;;;;5148742;27;20113;-57
2021/12/30 07:10:04;;;;;;;63.13;15.98;;;;;;;;;;5148112;27;20062;-55
2021/12/30 07:12:30;;;;;;;51.78;15.70;;;;;;;;;;5148765;27;20391;-55
2021/12/30 07:14:57;;;;;;;58.78;17.30;;;;;;;;;;5148475;27;20177;-56
2021/12/30 07:17:23;;;;;;;67.07;17.55;;;;;;;;;;5148377;27;20047;-56
2021/12/30 07:19:49;;;;;;;50.25;14.63;;;;;;;;;;5148294;27;20043;-56
2021/12/30 07:22:15;;;;;;;48.22;15.05;;;;;;;;;;5148218;27;20143;-57
2021/12/30 07:24:41;;;;;;;44.20;14.88;;;;;;;;;;5148114;27;20091;-57
2021/12/30 07:27:07;;;;;;;43.80;13.73;;;;;;;;;;5148199;27;20107;-57
2021/12/30 07:29:33;;;;;;;50.83;13.98;;;;;;;;;;5148139;27;20046;-56
2021/12/30 07:32:00;;;;;;;51.13;14.75;;;;;;;;;;5148149;27;20061;-57
2021/12/30 07:34:26;;;;;;;41.00;13.80;;;;;;;;;;5129964;27;20055;-57
2021/12/30 07:36:52;;;;;;;49.50;13.35;;;;;;;;;;5147463;27;20134;-57
2021/12/30 07:39:18;;;;;;;44.53;13.13;;;;;;;;;;5147876;27;20120;-54
2021/12/30 07:41:44;;;;;;;38.63;13.50;;;;;;;;;;5147870;27;20039;-56
2021/12/30 07:44:10;;;;;;;43.20;12.95;;;;;;;;;;5147979;27;20047;-55
2021/12/30 07:46:36;;;;;;;35.55;12.40;;;;;;;;;;5147896;27;20073;-56
2021/12/30 07:49:03;;;;;;;38.20;12.88;;;;;;;;;;5129197;27;20046;-56
2021/12/30 07:51:29;;;;;;;47.08;13.32;;;;;;;;;;5128843;27;20059;-55
2021/12/30 07:53:56;;;;;;;36.90;11.30;;;;;;;;;;5147037;27;20050;-55
2021/12/30 07:56:22;;;;;;;38.20;12.40;;;;;;;;;;5147267;27;20070;-55
2021/12/30 07:58:48;;;;;;;28.20;10.43;;;;;;;;;;5147904;27;20043;-56
2021/12/30 08:01:14;;;;;;;32.30;11.38;;;;;;;;;;5129177;27;20043;-57
2021/12/30 08:03:40;;;;;;;29.83;11.40;;;;;;;;;;5147548;27;20047;-57
2021/12/30 08:06:06;;;;;;;37.47;11.77;;;;;;;;;;5146816;27;20043;-56
2021/12/30 08:08:32;;;;;;;27.63;10.60;;;;;;;;;;5147054;27;20047;-55
2021/12/30 08:10:58;;;;;;;25.35;11.18;;;;;;;;;;5147064;27;20043;-55
2021/12/30 08:13:25;;;;;;;21.90;10.25;;;;;;;;;;5147795;27;20115;-55
2021/12/30 08:15:51;;;;;;;19.90;9.38;;;;;;;;;;5147222;27;20031;-54
2021/12/30 08:18:17;;;;;;;19.70;9.68;;;;;;;;;;5128936;27;20054;-55
2021/12/30 08:20:43;;;;;;;18.00;9.20;;;;;;;;;;5146518;27;20062;-55
2021/12/30 08:23:09;;;;;;;19.77;9.88;;;;;;;;;;5128768;27;20410;-55
2021/12/30 08:25:36;;;;;;;17.20;9.13;;;;;;;;;;5147047;27;20043;-55
2021/12/30 08:28:02;;;;;;;15.57;9.95;;;;;;;;;;5128660;27;20043;-56
2021/12/30 08:30:28;;;;;;;15.35;8.38;;;;;;;;;;5146867;27;20043;-56
2021/12/30 08:32:54;;;;;;;12.93;8.55;;;;;;;;;;5146817;27;20051;-55
2021/12/30 08:35:21;;;;;;;19.30;9.07;;;;;;;;;;5146474;27;20432;-55
2021/12/30 08:37:48;;;;;;;10.20;6.53;;;;;;;;;;5128644;27;20135;-55
2021/12/30 08:40:15;;;;;;;13.43;7.47;;;;;;;;;;5146440;27;20046;-56
2021/12/30 08:42:42;;;;;;;15.35;7.38;;;;;;;;;;5146858;27;20031;-54
2021/12/30 08:45:09;;;;;;;6.90;5.47;;;;;;;;;;5128328;27;20055;-55
2021/12/30 08:47:36;;;;;;;9.40;5.53;;;;;;;;;;5146610;27;20430;-55
2021/12/30 08:50:03;;;;;;;9.65;5.65;;;;;;;;;;5146296;27;20499;-55
2021/12/30 08:52:29;;;;;;;9.90;6.28;;;;;;;;;;5146607;27;20047;-55
2021/12/30 08:54:59;;;;;;;16.95;7.82;;;;;;;;;;5128119;27;20188;-56
2021/12/30 08:57:25;;;;;;;13.15;8.02;;;;;;;;;;5146616;27;20047;-55
2021/12/30 08:59:51;;;;;;;16.50;8.32;;;;;;;;;;5146498;27;20379;-56
2021/12/30 09:02:18;;;;;;;11.57;6.10;;;;;;;;;;5146353;27;20102;-55
2021/12/30 09:04:46;;;;;;;20.38;8.90;;;;;;;;;;5145731;27;20051;-54
2021/12/30 09:07:13;;;;;;;17.65;8.65;;;;;;;;;;5127066;27;20176;-56
2021/12/30 09:09:40;;;;;;;15.50;8.23;;;;;;;;;;5123875;28;20052;-56
2021/12/30 09:12:07;;;;;;;16.65;7.82;;;;;;;;;;5125702;28;20053;-54
2021/12/30 09:14:33;;;;;;;10.93;6.70;;;;;;;;;;5125626;28;20039;-56
2021/12/30 09:16:59;;;;;;;12.15;5.40;;;;;;;;;;5125827;28;20042;-57
2021/12/30 09:19:25;;;;;;;16.13;7.78;;;;;;;;;;5125489;28;20044;-55
2021/12/30 09:21:51;;;;;;;15.48;7.65;;;;;;;;;;5124843;28;20065;-56
2021/12/30 09:24:18;;;;;;;18.17;7.82;;;;;;;;;;5125101;28;20075;-55
2021/12/30 09:26:44;;;;;;;22.83;8.70;;;;;;;;;;5125386;28;20040;-55
2021/12/30 09:29:10;;;;;;;18.33;7.72;;;;;;;;;;5125742;28;20094;-56
2021/12/30 09:31:45;;;;;;;22.70;7.43;;;;;;;;;;5125195;27;20586;-55
2021/12/30 09:34:11;;;;;;;24.02;7.20;;;;;;;;;;5125340;28;20071;-56
2021/12/30 09:36:38;;;;;;;17.42;7.32;;;;;;;;;;5124699;28;20036;-54
2021/12/30 09:39:07;;;;;;;17.65;7.75;;;;;;;;;;5125365;28;20468;-56
2021/12/30 09:41:34;;;;;;;16.88;6.45;;;;;;;;;;5124917;28;20051;-57
2021/12/30 09:44:00;;;;;;;25.15;9.05;;;;;;;;;;5125328;28;20071;-56
2021/12/30 09:46:27;;;;;;;23.60;8.93;;;;;;;;;;5125185;28;20101;-55
2021/12/30 09:48:55;;;;;;;27.50;8.93;;;;;;;;;;5125025;28;20047;-56
2021/12/30 09:51:21;;;;;;;24.55;7.78;;;;;;;;;;5123354;28;20134;-56
2021/12/30 09:53:50;;;;;;;25.58;9.18;;;;;;;;;;5125149;28;20075;-56
2021/12/30 09:56:17;;;;;;;20.80;7.88;;;;;;;;;;5124907;28;20047;-53
2021/12/30 09:58:43;;;;;;;24.55;9.20;;;;;;;;;;5125200;28;20196;-55
2021/12/30 10:01:09;;;;;;;26.48;7.53;;;;;;;;;;5125037;28;20126;-56
2021/12/30 10:03:35;;;;;;;30.52;9.32;;;;;;;;;;5124816;28;20127;-57
2021/12/30 10:06:12;;;;;;;19.48;8.18;;;;;;;;;;5124483;28;20043;-56
2021/12/30 10:08:43;;;;;;;23.70;5.97;;;;;;;;;;5123545;28;20066;-57
2021/12/30 10:11:14;;;;;;;23.75;8.18;;;;;;;;;;5124733;28;20624;-56
2021/12/30 10:13:49;;;;;;;36.53;10.05;;;;;;;;;;5124662;28;20044;-57
2021/12/30 10:16:16;;;;;;;28.02;10.85;;;;;;;;;;5126498;28;20145;-56
2021/12/30 10:18:51;;;;;;;29.83;9.80;;;;;;;;;;5129102;28;20050;-56
2021/12/30 10:21:19;;;;;;;21.95;7.35;;;;;;;;;;5128406;28;20043;-57
2021/12/30 10:23:46;;;;;;;30.63;7.68;;;;;;;;;;5128987;28;20441;-57
2021/12/30 10:26:13;;;;;;;35.67;9.35;;;;;;;;;;5128741;28;20054;-56
2021/12/30 10:28:40;;;;;;;29.73;8.50;;;;;;;;;;5128877;28;20119;-56
2021/12/30 10:31:12;;;;;;;29.77;9.45;;;;;;;;;;5127536;28;20130;-56
2021/12/30 10:33:59;;;;;;;36.88;8.73;;;;;;;;;;5127651;28;20055;-57
2021/12/30 10:36:27;;;;;;;23.92;7.13;;;;;;;;;;5120639;28;20073;-56
2021/12/30 10:38:55;;;;;;;38.47;8.63;;;;;;;;;;5128602;28;20090;-55
2021/12/30 10:41:22;;;;;;;31.33;6.25;;;;;;;;;;5128578;28;20123;-57
2021/12/30 10:43:51;;;;;;;30.48;6.53;;;;;;;;;;5128714;28;20044;-56
2021/12/30 10:46:19;;;;;;;34.53;7.82;;;;;;;;;;5128423;28;20119;-56
2021/12/30 10:48:47;;;;;;;34.10;7.70;;;;;;;;;;5127023;28;20047;-56
2021/12/30 10:51:15;;;;;;;31.00;8.40;;;;;;;;;;5127732;28;20039;-58
2021/12/30 10:53:41;;;;;;;;;;;;;;;;;;5127737;28;20047;-57
2021/12/30 10:56:28;;;;;;;32.10;7.25;;;;;;;;;;5127955;28;19920;-57
2021/12/30 10:58:56;;;;;;;27.77;8.10;;;;;;;;;;5128268;28;20051;-56
2021/12/30 11:01:24;;;;;;;22.00;6.70;;;;;;;;;;5127909;28;20044;-56
2021/12/30 11:03:57;;;;;;;24.95;7.05;;;;;;;;;;5127962;28;20522;-56
2021/12/30 11:06:24;;;;;;;29.00;8.02;;;;;;;;;;5126425;28;20075;-56
2021/12/30 11:09:04;;;;;;;34.10;7.90;;;;;;;;;;5133800;27;20507;-56
2021/12/30 11:11:30;;;;;;;39.03;7.78;;;;;;;;;;5148429;27;20043;-56
2021/12/30 11:14:05;;;;;;;41.83;7.57;;;;;;;;;;5148650;27;20097;-55
2021/12/30 11:16:32;;;;;;;30.55;7.40;;;;;;;;;;5148364;27;20032;-57
2021/12/30 11:18:58;;;;;;;44.95;8.52;;;;;;;;;;5130036;27;20051;-55
2021/12/30 11:21:40;;;;;;;47.63;8.57;;;;;;;;;;5147657;27;20388;-58
2021/12/30 11:24:07;;;;;;;39.08;8.57;;;;;;;;;;5148287;27;20039;-55
2021/12/30 11:26:34;;;;;;;38.83;7.18;;;;;;;;;;5147870;27;20127;-55
2021/12/30 11:29:01;;;;;;;39.50;6.70;;;;;;;;;;5147097;27;20129;-56
2021/12/30 11:31:29;;;;;;;38.85;7.90;;;;;;;;;;5129414;27;20055;-56
2021/12/30 11:33:55;;;;;;;42.40;9.20;;;;;;;;;;5147986;27;20081;-56
2021/12/30 11:36:21;;;;;;;40.47;8.25;;;;;;;;;;5147471;27;20095;-58
2021/12/30 11:38:48;;;;;;;52.53;9.95;;;;;;;;;;5148427;27;20058;-57
2021/12/30 11:41:18;;;;;;;38.83;7.50;;;;;;;;;;5147785;27;20051;-57
2021/12/30 11:43:45;;;;;;;45.53;8.70;;;;;;;;;;5147918;27;20054;-57
2021/12/30 11:46:30;;;;;;;28.20;6.32;;;;;;;;;;5129350;27;20096;-56
2021/12/30 11:48:57;;;;;;;52.40;10.77;;;;;;;;;;5147878;27;20118;-57
2021/12/30 11:51:23;;;;;;;45.25;9.95;;;;;;;;;;5146959;27;20047;-57
2021/12/30 11:53:52;;;;;;;45.78;10.35;;;;;;;;;;5147963;27;20039;-56
2021/12/30 11:56:22;;;;;;;55.42;11.25;;;;;;;;;;5147264;27;20046;-56
2021/12/30 11:58:51;;;;;;;57.47;10.43;;;;;;;;;;5147784;27;20085;-57
2021/12/30 12:01:27;;;;;;;48.28;10.40;;;;;;;;;;5147578;27;20058;-57
2021/12/30 12:03:53;;;;;;;39.00;9.05;;;;;;;;;;5147347;27;20047;-57
2021/12/30 12:08:55;;;;;;;57.75;10.20;;;;;;;;;;5147320;27;20126;-57
2021/12/30 12:11:26;;;;;;;54.10;10.52;;;;;;;;;;5147104;27;20442;-57
2021/12/30 12:13:56;;;;;;;47.75;10.48;;;;;;;;;;5128721;27;20106;-57
2021/12/30 12:16:41;;;;;;;55.15;10.15;;;;;;;;;;5147094;27;20126;-57
2021/12/30 12:19:09;;;;;;;55.85;10.25;;;;;;;;;;5128713;27;20075;-57
2021/12/30 12:21:43;;;;;;;61.03;10.57;;;;;;;;;;5128035;27;20229;-57
2021/12/30 12:24:21;;;;;;;49.20;9.52;;;;;;;;;;5147345;27;20043;-57
2021/12/30 12:26:51;;;;;;;42.30;10.25;;;;;;;;;;5146871;27;20047;-58
2021/12/30 12:29:24;;;;;;;44.45;8.15;;;;;;;;;;5146868;27;20043;-56
2021/12/30 12:31:58;;;;;;;40.40;9.35;;;;;;;;;;5146870;27;20046;-57
2021/12/30 12:34:39;;;;;;;25.40;7.15;;;;;;;;;;5146897;27;20043;-57
2021/12/30 12:37:26;;;;;;;45.55;7.15;;;;;;;;;;5146575;27;20052;-57
2021/12/30 12:39:59;;;;;;;34.45;6.40;;;;;;;;;;5146128;27;20047;-58
2021/12/30 12:42:44;;;;;;;30.00;6.82;;;;;;;;;;5128548;27;20143;-57
2021/12/30 12:45:29;;;;;;;43.92;7.40;;;;;;;;;;5146762;27;20565;-58
2021/12/30 12:48:14;;;;;;;37.00;7.82;;;;;;;;;;5146561;27;20526;-58
2021/12/30 12:50:41;;;;;;;37.83;8.05;;;;;;;;;;5145926;27;20074;-57
2021/12/30 12:53:07;;;;;;;;;;;;;;;;;;5147133;27;20034;-57
2021/12/30 12:55:37;;;;;;;48.15;8.20;;;;;;;;;;5146266;27;19927;-57
2021/12/30 12:58:10;;;;;;;46.83;9.93;;;;;;;;;;5146474;27;20047;-56
2021/12/30 13:00:36;;;;;;;42.58;8.77;;;;;;;;;;5146481;27;20491;-58
2021/12/30 13:03:02;;;;;;;45.78;7.53;;;;;;;;;;5146382;27;20082;-57
2021/12/30 13:05:29;;;;;;;49.10;8.93;;;;;;;;;;5145621;27;20035;-56
2021/12/30 13:07:57;;;;;;;53.53;8.43;;;;;;;;;;5146464;27;20079;-58
2021/12/30 13:10:23;;;;;;;39.53;9.65;;;;;;;;;;5145412;27;20062;-57
2021/12/30 13:12:50;;;;;;;44.38;8.52;;;;;;;;;;5146399;27;20047;-58
2021/12/30 13:15:17;;;;;;;43.38;6.80;;;;;;;;;;5146460;27;20429;-57
2021/12/30 13:17:44;;;;;;;41.58;7.78;;;;;;;;;;5146240;27;20116;-57
2021/12/30 13:20:14;;;;;;;35.60;8.10;;;;;;;;;;5127170;27;20035;-57
2021/12/30 13:22:40;;;;;;;37.75;7.82;;;;;;;;;;5146199;27;20084;-57
2021/12/30 13:25:08;;;;;;;20.38;4.97;;;;;;;;;;5127453;27;20095;-57
2021/12/30 13:27:34;;;;;;;47.33;7.88;;;;;;;;;;5146296;27;20081;-57
2021/12/30 13:30:02;;;;;;;41.55;8.60;;;;;;;;;;5145540;27;20046;-57
2021/12/30 13:32:30;;;;;;;35.17;7.57;;;;;;;;;;5145737;27;20066;-57
2021/12/30 13:35:04;;;;;;;40.88;8.35;;;;;;;;;;5145885;27;20051;-58
2021/12/30 13:37:40;;;;;;;25.23;6.88;;;;;;;;;;5145780;27;20483;-57
2021/12/30 13:40:27;;;;;;;37.78;7.43;;;;;;;;;;5145400;27;20051;-58
2021/12/30 13:42:54;;;;;;;35.47;7.40;;;;;;;;;;5145772;27;20043;-57
2021/12/30 13:45:25;;;;;;;34.08;6.88;;;;;;;;;;5145880;27;20047;-58
2021/12/30 13:47:52;;;;;;;46.92;8.60;;;;;;;;;;5145807;27;20046;-57
2021/12/30 13:50:19;;;;;;;41.83;9.30;;;;;;;;;;5144125;27;20136;-58
2021/12/30 13:52:46;;;;;;;36.80;8.23;;;;;;;;;;5145553;27;20040;-57
2021/12/30 13:55:22;;;;;;;34.90;8.50;;;;;;;;;;5126982;28;20055;-59
2021/12/30 13:58:04;;;;;;;33.67;7.72;;;;;;;;;;5145693;28;20069;-57
2021/12/30 14:00:31;;;;;;;52.83;9.63;;;;;;;;;;5145670;28;20468;-57
2021/12/30 14:03:01;;;;;;;42.10;8.07;;;;;;;;;;5145372;28;20082;-57
2021/12/30 14:05:27;;;;;;;38.33;8.27;;;;;;;;;;5145038;28;20172;-57
2021/12/30 14:07:53;;;;;;;43.47;8.25;;;;;;;;;;5145516;28;20078;-58
2021/12/30 14:10:19;;;;;;;40.53;8.00;;;;;;;;;;5126366;28;20059;-57
2021/12/30 14:12:55;;;;;;;45.55;8.70;;;;;;;;;;5145669;28;20057;-57
2021/12/30 14:15:22;;;;;;;52.65;10.02;;;;;;;;;;5127043;28;20043;-57
2021/12/30 14:17:57;;;;;;;36.97;7.88;;;;;;;;;;5145424;28;20075;-56
2021/12/30 14:20:23;;;;;;;47.55;7.75;;;;;;;;;;5144603;28;20083;-57
2021/12/30 14:22:49;;;;;;;39.28;8.57;;;;;;;;;;5145229;28;20035;-57
2021/12/30 14:25:43;;;;;;;51.47;8.60;;;;;;;;;;5145000;28;20488;-58
2021/12/30 14:28:21;;;;;;;55.22;9.13;;;;;;;;;;5142559;28;20056;-57
2021/12/30 14:30:47;;;;;;;43.42;9.13;;;;;;;;;;5126892;28;20053;-58
2021/12/30 14:33:14;;;;;;;58.35;9.02;;;;;;;;;;5145228;28;20414;-58